Time;durP1;ratioP1;P1;durP2;ratioP2;P2;SDS_P1;SDS_P2;PMS_P1;PMS_P2;Temp;Humidity;BMP_temperature;BMP_pressure;BME280_temperature;BME280_humidity;BME280_pressure;Samples;Min_cycle;Max_cycle;Signal;HPM_P1;HPM_P2
2021/06/14 00:00:39;;;;;;;1.30;1.10;;;15.20;98.00;;;;;;5074049;28;20517;-73
2021/06/14 00:03:06;;;;;;;1.70;1.50;;;14.90;98.00;;;;;;5071810;28;20493;-74
2021/06/14 00:05:37;;;;;;;4.93;1.30;;;14.70;98.00;;;;;;5073813;28;20495;-73
2021/06/14 00:08:08;;;;;;;1.40;1.27;;;14.60;98.00;;;;;;5071170;28;20551;-74
2021/06/14 00:10:36;;;;;;;1.50;1.30;;;14.50;98.00;;;;;;5073860;28;20496;-73
2021/06/14 00:13:05;;;;;;;1.20;1.10;;;14.40;98.00;;;;;;5072316;28;20572;-75
2021/06/14 00:15:33;;;;;;;1.30;1.10;;;14.30;98.00;;;;;;5073505;28;20460;-73
2021/06/14 00:18:01;;;;;;;1.30;1.20;;;14.10;98.00;;;;;;5073479;28;20492;-74
2021/06/14 00:20:28;;;;;;;3.10;1.50;;;14.00;98.00;;;;;;5072150;28;20624;-74
2021/06/14 00:22:55;;;;;;;2.23;1.40;;;14.00;98.00;;;;;;5073710;28;20525;-73
2021/06/14 00:25:27;;;;;;;1.20;1.10;;;14.20;98.00;;;;;;5070890;28;20492;-73
2021/06/14 00:27:54;;;;;;;1.60;1.17;;;14.40;98.00;;;;;;5072423;28;20513;-73
2021/06/14 00:30:26;;;;;;;1.80;1.57;;;14.60;98.00;;;;;;5070846;28;20457;-73
2021/06/14 00:32:53;;;;;;;1.40;1.30;;;14.60;98.00;;;;;;5073560;28;21167;-73
2021/06/14 00:35:20;;;;;;;1.20;1.07;;;14.50;98.00;;;;;;5070385;28;20452;-73
2021/06/14 00:37:47;;;;;;;1.20;1.10;;;14.30;98.00;;;;;;5073568;28;20775;-73
2021/06/14 00:40:15;;;;;;;1.20;1.10;;;14.20;98.00;;;;;;5071226;28;21005;-73
2021/06/14 00:42:45;;;;;;;1.47;1.10;;;14.20;98.00;;;;;;5073307;28;20461;-73
2021/06/14 00:45:15;;;;;;;1.20;1.07;;;14.10;98.00;;;;;;5070303;28;20538;-74
2021/06/14 00:47:42;;;;;;;1.20;1.10;;;14.10;98.00;;;;;;5073278;28;20487;-73
2021/06/14 00:50:10;;;;;;;1.77;1.33;;;14.00;98.00;;;;;;5070742;28;20555;-74
2021/06/14 00:52:37;;;;;;;1.30;1.00;;;14.00;98.00;;;;;;5072865;28;21047;-75
2021/06/14 00:55:05;;;;;;;1.20;1.10;;;13.80;98.00;;;;;;5070125;28;20449;-74
2021/06/14 00:57:32;;;;;;;1.30;1.00;;;13.90;98.00;;;;;;5072764;28;20803;-75
2021/06/14 01:00:02;;;;;;;1.67;1.47;;;13.80;98.00;;;;;;5070130;28;20519;-75
2021/06/14 01:02:28;;;;;;;1.20;1.00;;;13.70;98.00;;;;;;5072820;28;20518;-75
2021/06/14 01:04:56;;;;;;;1.53;1.20;;;13.70;98.00;;;;;;5069914;28;20926;-75
2021/06/14 01:07:24;;;;;;;1.50;1.20;;;13.70;98.00;;;;;;5072668;28;21083;-75
2021/06/14 01:09:52;;;;;;;1.20;1.10;;;13.80;98.00;;;;;;5069932;28;20520;-77
2021/06/14 01:12:22;;;;;;;1.30;1.20;;;13.90;98.00;;;;;;5072608;28;20850;-76
2021/06/14 01:14:55;;;;;;;1.30;1.10;;;13.90;98.00;;;;;;5069880;28;20457;-76
2021/06/14 01:17:31;;;;;;;1.20;1.03;;;13.90;98.00;;;;;;5072692;28;20876;-76
2021/06/14 01:20:10;;;;;;;1.37;1.10;;;13.90;98.00;;;;;;5069617;28;20596;-75
2021/06/14 01:22:59;;;;;;;1.47;1.27;;;13.70;98.00;;;;;;5072389;28;20461;-76
2021/06/14 01:25:32;;;;;;;1.20;1.00;;;13.70;98.00;;;;;;5069310;28;20472;-76
2021/06/14 01:28:05;;;;;;;1.30;1.23;;;13.90;98.00;;;;;;5072256;28;21078;-76
2021/06/14 01:30:34;;;;;;;1.57;1.20;;;13.80;98.00;;;;;;5068126;28;20448;-74
2021/06/14 01:33:04;;;;;;;1.30;1.20;;;13.80;98.00;;;;;;5072267;28;21023;-77
2021/06/14 01:35:36;;;;;;;1.20;1.00;;;13.60;98.00;;;;;;5069909;28;20858;-75
2021/06/14 01:38:05;;;;;;;1.30;1.20;;;13.70;98.00;;;;;;5072107;28;21016;-74
2021/06/14 01:40:34;;;;;;;2.03;1.43;;;13.80;98.00;;;;;;5068626;28;20476;-76
2021/06/14 01:43:06;;;;;;;1.70;1.17;;;13.70;98.00;;;;;;5071898;28;20489;-75
2021/06/14 01:45:37;;;;;;;1.50;1.40;;;13.60;98.00;;;;;;5069414;28;20504;-75
2021/06/14 01:48:09;;;;;;;1.50;1.10;;;13.70;98.00;;;;;;5072066;28;20517;-76
2021/06/14 01:50:36;;;;;;;2.23;1.40;;;13.50;98.00;;;;;;5071510;28;20882;-75
2021/06/14 01:53:04;;;;;;;1.60;1.30;;;13.30;98.00;;;;;;5071846;28;20482;-75
2021/06/14 01:55:33;;;;;;;1.57;1.20;;;13.30;98.00;;;;;;5068134;28;20452;-74
2021/06/14 01:58:00;;;;;;;1.40;1.23;;;13.30;98.00;;;;;;5070593;28;20461;-77
2021/06/14 02:00:29;;;;;;;1.73;1.30;;;13.20;98.00;;;;;;5069069;28;20488;-75
2021/06/14 02:02:57;;;;;;;1.67;1.30;;;13.10;98.00;;;;;;5072077;28;20457;-74
2021/06/14 02:05:27;;;;;;;2.07;1.47;;;13.00;98.00;;;;;;5067718;28;20495;-76
2021/06/14 02:07:55;;;;;;;1.50;1.20;;;12.90;98.00;;;;;;5071726;28;20487;-76
2021/06/14 02:10:22;;;;;;;1.33;1.13;;;12.90;98.00;;;;;;5068230;28;20457;-76
2021/06/14 02:12:50;;;;;;;1.40;1.10;;;12.90;98.00;;;;;;5071756;28;20464;-76
2021/06/14 02:15:19;;;;;;;1.50;1.10;;;12.90;98.00;;;;;;5068654;28;20451;-75
2021/06/14 02:17:49;;;;;;;1.57;1.43;;;12.90;98.00;;;;;;5071226;28;20533;-76
2021/06/14 02:20:18;;;;;;;1.73;1.20;;;12.80;98.00;;;;;;5068024;28;20541;-75
2021/06/14 02:22:46;;;;;;;3.03;1.67;;;13.00;98.00;;;;;;5071445;28;20452;-76
2021/06/14 02:25:14;;;;;;;1.60;1.37;;;13.00;98.00;;;;;;5068122;28;20459;-75
2021/06/14 02:27:41;;;;;;;1.53;1.40;;;13.00;98.00;;;;;;5071454;28;20448;-76
2021/06/14 02:30:13;;;;;;;1.20;1.07;;;13.00;98.00;;;;;;5068736;28;20509;-76
2021/06/14 02:32:40;;;;;;;1.60;1.23;;;13.00;98.00;;;;;;5071151;28;20459;-75
2021/06/14 02:35:11;;;;;;;1.30;1.10;;;12.90;98.00;;;;;;5068316;28;20483;-75
2021/06/14 02:37:40;;;;;;;1.40;1.30;;;12.80;98.00;;;;;;5071394;28;20491;-77
2021/06/14 02:40:08;;;;;;;1.50;1.47;;;12.80;98.00;;;;;;5068588;28;20516;-75
2021/06/14 02:42:36;;;;;;;1.40;1.10;;;12.80;98.00;;;;;;5071641;28;20544;-78
2021/06/14 02:45:04;;;;;;;1.47;1.27;;;12.70;98.00;;;;;;5068472;28;20459;-75
2021/06/14 02:47:32;;;;;;;3.00;1.67;;;12.90;98.00;;;;;;5071370;28;20495;-76
2021/06/14 02:50:01;;;;;;;1.57;1.20;;;12.80;98.00;;;;;;5068709;28;20454;-76
2021/06/14 02:52:32;;;;;;;1.50;1.20;;;12.90;98.00;;;;;;5071210;28;20454;-76
2021/06/14 02:55:03;;;;;;;2.07;1.50;;;12.70;98.00;;;;;;5068247;28;20486;-76
2021/06/14 02:57:33;;;;;;;1.20;0.97;;;12.60;98.00;;;;;;5071116;28;20482;-76
2021/06/14 03:00:00;;;;;;;1.20;1.00;;;12.50;98.00;;;;;;5068265;28;20479;-76
2021/06/14 03:02:29;;;;;;;1.33;1.10;;;12.60;98.00;;;;;;5070998;28;20482;-75
2021/06/14 03:04:56;;;;;;;1.40;1.20;;;12.50;98.00;;;;;;5068122;28;20469;-76
2021/06/14 03:07:25;;;;;;;1.97;1.67;;;12.70;98.00;;;;;;5071089;28;20456;-76
2021/06/14 03:09:54;;;;;;;1.20;1.00;;;12.70;98.00;;;;;;5067764;28;20547;-77
2021/06/14 03:12:25;;;;;;;3.97;1.70;;;12.60;98.00;;;;;;5070983;28;20495;-76
2021/06/14 03:14:52;;;;;;;2.10;1.70;;;12.50;98.00;;;;;;5067941;28;20885;-75
2021/06/14 03:17:20;;;;;;;1.33;1.20;;;12.60;98.00;;;;;;5070915;28;20510;-75
2021/06/14 03:19:48;;;;;;;1.93;1.10;;;12.60;98.00;;;;;;5067933;28;20545;-75
2021/06/14 03:22:15;;;;;;;1.40;1.10;;;12.50;98.00;;;;;;5072380;28;20566;-74
2021/06/14 03:24:42;;;;;;;1.43;1.20;;;12.40;98.00;;;;;;5071511;28;20537;-76
2021/06/14 03:27:14;;;;;;;1.30;1.20;;;12.30;98.00;;;;;;5074942;28;20538;-75
2021/06/14 03:29:41;;;;;;;1.20;1.10;;;12.30;98.00;;;;;;5071731;28;20809;-77
2021/06/14 03:32:10;;;;;;;3.70;1.47;;;12.30;98.00;;;;;;5074792;28;20517;-77
2021/06/14 03:34:41;;;;;;;1.30;1.10;;;12.40;98.00;;;;;;5071495;28;20500;-77
2021/06/14 03:37:09;;;;;;;1.43;1.20;;;12.70;98.00;;;;;;5073953;28;20537;-76
2021/06/14 03:39:36;;;;;;;2.13;1.40;;;12.80;98.00;;;;;;5071184;28;20860;-75
2021/06/14 03:42:04;;;;;;;1.47;1.33;;;12.80;98.00;;;;;;5074325;28;20517;-77
2021/06/14 03:44:32;;;;;;;1.97;1.37;;;12.90;98.00;;;;;;5071505;28;20451;-76
2021/06/14 03:46:59;;;;;;;1.47;1.27;;;13.00;98.00;;;;;;5074257;28;20459;-76
2021/06/14 03:49:26;;;;;;;1.47;1.37;;;12.90;98.00;;;;;;5071048;28;20986;-76
2021/06/14 03:51:53;;;;;;;3.90;1.67;;;13.00;98.00;;;;;;5074182;28;20748;-76
2021/06/14 03:54:20;;;;;;;1.20;1.03;;;13.00;98.00;;;;;;5071413;28;20520;-74
2021/06/14 03:56:47;;;;;;;1.30;1.10;;;12.70;98.00;;;;;;5074051;28;20961;-76
2021/06/14 03:59:14;;;;;;;1.20;1.10;;;12.60;98.00;;;;;;5069437;28;20486;-75
2021/06/14 04:01:43;;;;;;;1.30;1.10;;;12.60;98.00;;;;;;5073569;28;20972;-76
2021/06/14 04:04:32;;;;;;;1.30;1.10;;;12.80;98.00;;;;;;5071620;28;20945;-74
2021/06/14 04:06:59;;;;;;;1.27;1.13;;;12.80;98.00;;;;;;5074021;28;20456;-75
2021/06/14 04:09:26;;;;;;;1.30;1.10;;;12.80;98.00;;;;;;5069779;28;20446;-77
2021/06/14 04:11:53;;;;;;;1.50;1.20;;;12.60;98.00;;;;;;5074086;28;20485;-75
2021/06/14 04:14:20;;;;;;;2.80;1.40;;;12.60;98.00;;;;;;5071299;28;20542;-76
2021/06/14 04:16:48;;;;;;;1.20;1.10;;;12.60;98.00;;;;;;5073888;28;20938;-75
2021/06/14 04:19:15;;;;;;;1.30;1.17;;;12.80;98.00;;;;;;5070752;28;20768;-74
2021/06/14 04:21:42;;;;;;;1.20;1.03;;;12.60;98.00;;;;;;5073519;28;20480;-75
2021/06/14 04:24:09;;;;;;;2.30;1.27;;;12.60;98.00;;;;;;5070869;28;20541;-75
2021/06/14 04:26:36;;;;;;;1.30;1.10;;;12.60;98.00;;;;;;5071992;28;20530;-77
2021/06/14 04:29:04;;;;;;;1.50;1.10;;;12.80;98.00;;;;;;5070576;28;20621;-75
2021/06/14 04:31:31;;;;;;;1.43;1.20;;;12.90;98.00;;;;;;5072177;28;20460;-75
2021/06/14 04:33:59;;;;;;;1.40;1.20;;;12.80;98.00;;;;;;5070204;28;20453;-76
2021/06/14 04:36:26;;;;;;;1.93;1.63;;;12.80;98.00;;;;;;5073286;28;20498;-76
2021/06/14 04:38:53;;;;;;;1.47;1.20;;;12.80;98.00;;;;;;5070161;28;20512;-74
2021/06/14 04:41:20;;;;;;;1.30;1.10;;;12.80;98.00;;;;;;5073094;28;20924;-74
2021/06/14 04:43:47;;;;;;;1.20;0.90;;;12.70;98.00;;;;;;5070169;28;20480;-74
2021/06/14 04:46:14;;;;;;;2.67;2.00;;;12.80;98.00;;;;;;5073150;28;20458;-76
2021/06/14 04:48:41;;;;;;;1.30;1.20;;;12.80;98.00;;;;;;5070390;28;20490;-76
2021/06/14 04:51:09;;;;;;;1.60;1.30;;;12.70;98.00;;;;;;5073378;28;20874;-76
2021/06/14 04:53:37;;;;;;;2.57;1.30;;;12.70;98.00;;;;;;5070746;28;20535;-75
2021/06/14 04:56:05;;;;;;;1.20;1.00;;;12.60;98.00;;;;;;5073252;28;20533;-74
2021/06/14 04:58:34;;;;;;;1.30;1.17;;;12.70;98.00;;;;;;5071414;28;20515;-78
2021/06/14 05:01:01;;;;;;;1.50;1.20;;;12.80;98.00;;;;;;5072902;28;20564;-76
2021/06/14 05:03:28;;;;;;;1.40;1.40;;;12.80;98.00;;;;;;5072862;28;20458;-76
2021/06/14 05:05:55;;;;;;;1.93;1.40;;;12.90;98.00;;;;;;5071379;28;20454;-76
2021/06/14 05:08:24;;;;;;;1.80;1.57;;;13.00;98.00;;;;;;5072986;28;20462;-75
2021/06/14 05:10:51;;;;;;;1.37;1.30;;;13.10;98.00;;;;;;5069922;28;20454;-75
2021/06/14 05:13:18;;;;;;;1.80;1.30;;;13.30;98.00;;;;;;5072786;28;20857;-76
2021/06/14 05:15:45;;;;;;;2.90;1.40;;;13.40;98.00;;;;;;5069561;28;20502;-74
2021/06/14 05:18:12;;;;;;;1.20;1.00;;;13.50;98.00;;;;;;5072452;28;20885;-75
2021/06/14 05:20:40;;;;;;;1.60;1.30;;;13.70;98.00;;;;;;5069322;28;20487;-76
2021/06/14 05:23:07;;;;;;;2.47;1.20;;;13.90;98.00;;;;;;5072360;28;20451;-75
2021/06/14 05:25:37;;;;;;;1.30;1.17;;;14.00;98.00;;;;;;5069540;28;20504;-75
2021/06/14 05:28:04;;;;;;;1.63;1.20;;;14.10;98.00;;;;;;5072241;28;20460;-75
2021/06/14 05:30:33;;;;;;;1.60;1.30;;;14.30;98.00;;;;;;5069723;28;20448;-76
2021/06/14 05:33:01;;;;;;;1.30;1.10;;;14.40;98.00;;;;;;5072124;28;20530;-75
2021/06/14 05:35:28;;;;;;;1.30;1.07;;;14.60;98.00;;;;;;5069903;28;20520;-75
2021/06/14 05:37:54;;;;;;;1.60;1.10;;;14.60;98.00;;;;;;5072286;28;20509;-75
2021/06/14 05:40:21;;;;;;;1.40;1.00;;;14.80;98.00;;;;;;5069809;28;20489;-75
2021/06/14 05:42:50;;;;;;;1.53;1.17;;;14.90;98.00;;;;;;5072156;28;20491;-76
2021/06/14 05:45:17;;;;;;;1.20;1.00;;;15.00;98.00;;;;;;5068533;28;20875;-77
2021/06/14 05:47:45;;;;;;;1.30;1.20;;;15.10;98.00;;;;;;5072051;28;20458;-77
2021/06/14 05:50:13;;;;;;;2.00;1.40;;;15.20;98.00;;;;;;5069376;28;20457;-76
2021/06/14 05:52:40;;;;;;;1.40;1.17;;;15.40;98.00;;;;;;5071755;28;20701;-75
2021/06/14 05:55:09;;;;;;;1.27;1.20;;;15.40;98.00;;;;;;5068711;28;20487;-75
2021/06/14 05:57:36;;;;;;;1.20;0.97;;;15.50;98.00;;;;;;5070068;28;20449;-76
2021/06/14 06:00:06;;;;;;;1.73;1.47;;;15.60;98.00;;;;;;5068086;28;20950;-74
2021/06/14 06:02:33;;;;;;;3.60;1.43;;;15.70;98.00;;;;;;5070867;28;20507;-74
2021/06/14 06:05:00;;;;;;;2.23;1.40;;;15.80;98.00;;;;;;5068195;28;20514;-75
2021/06/14 06:07:27;;;;;;;1.20;1.00;;;15.90;98.00;;;;;;5071349;28;20464;-74
2021/06/14 06:09:54;;;;;;;1.40;1.20;;;16.00;98.00;;;;;;5069148;28;20453;-73
2021/06/14 06:12:21;;;;;;;1.87;1.40;;;16.20;98.00;;;;;;5070357;28;20457;-75
2021/06/14 06:14:48;;;;;;;1.60;1.20;;;16.40;98.00;;;;;;5068804;28;20506;-77
2021/06/14 06:17:17;;;;;;;1.20;1.10;;;16.60;98.00;;;;;;5071450;28;20452;-77
2021/06/14 06:19:44;;;;;;;1.20;1.10;;;16.70;98.00;;;;;;5069043;28;20787;-77
2021/06/14 06:22:12;;;;;;;1.60;1.20;;;16.90;98.00;;;;;;5071795;28;20538;-74
2021/06/14 06:24:39;;;;;;;2.13;1.37;;;17.10;98.00;;;;;;5068293;28;20526;-75
2021/06/14 06:27:07;;;;;;;1.30;1.17;;;17.10;98.00;;;;;;5071745;28;20506;-75
2021/06/14 06:29:34;;;;;;;1.63;1.47;;;17.30;98.00;;;;;;5068945;28;20468;-76
2021/06/14 06:32:01;;;;;;;1.50;1.30;;;17.40;98.00;;;;;;5071443;28;20514;-74
2021/06/14 06:34:29;;;;;;;1.20;1.00;;;17.50;97.90;;;;;;5068750;28;20448;-77
2021/06/14 06:36:56;;;;;;;1.37;1.23;;;17.60;97.80;;;;;;5071298;28;20487;-75
2021/06/14 06:39:23;;;;;;;1.93;1.10;;;17.70;98.00;;;;;;5068666;28;20534;-75
2021/06/14 06:41:50;;;;;;;1.30;1.13;;;17.80;97.00;;;;;;5071381;28;20531;-74
2021/06/14 06:44:17;;;;;;;1.63;1.13;;;18.00;97.10;;;;;;5068764;28;20923;-74
2021/06/14 06:46:44;;;;;;;1.83;1.43;;;18.00;95.30;;;;;;5071262;28;20445;-76
2021/06/14 06:49:11;;;;;;;2.13;1.20;;;18.20;95.80;;;;;;5068243;28;20457;-75
2021/06/14 06:51:40;;;;;;;1.70;1.20;;;18.30;95.20;;;;;;5071037;28;20525;-74
2021/06/14 06:54:13;;;;;;;1.30;1.30;;;18.40;95.20;;;;;;5068858;28;20873;-76
2021/06/14 06:56:45;;;;;;;2.23;1.40;;;18.50;96.00;;;;;;5073606;28;20539;-76
2021/06/14 06:59:13;;;;;;;1.20;1.00;;;18.60;93.60;;;;;;5071916;28;20496;-75
2021/06/14 07:01:40;;;;;;;1.67;1.40;;;18.70;95.30;;;;;;5074026;28;20516;-76
2021/06/14 07:04:08;;;;;;;2.27;1.60;;;18.80;93.30;;;;;;5071518;28;21019;-73
2021/06/14 07:06:35;;;;;;;1.83;1.50;;;18.90;93.20;;;;;;5074581;28;20456;-74
2021/06/14 07:09:05;;;;;;;1.43;1.30;;;19.00;92.10;;;;;;5071628;28;20659;-73
2021/06/14 07:11:33;;;;;;;1.30;1.10;;;19.10;91.60;;;;;;5074738;28;20491;-74
2021/06/14 07:14:01;;;;;;;1.80;1.50;;;19.20;89.90;;;;;;5072232;28;20457;-73
2021/06/14 07:16:31;;;;;;;1.40;1.20;;;19.30;90.90;;;;;;5074592;28;20509;-71
2021/06/14 07:19:00;;;;;;;1.20;1.10;;;19.50;89.00;;;;;;5069022;28;20463;-72
2021/06/14 07:21:28;;;;;;;1.47;1.17;;;19.60;88.30;;;;;;5074326;28;20598;-72
2021/06/14 07:23:55;;;;;;;1.30;1.10;;;19.70;88.40;;;;;;5071709;28;20456;-71
2021/06/14 07:26:25;;;;;;;1.40;1.17;;;19.70;89.70;;;;;;5074309;28;20484;-72
2021/06/14 07:28:52;;;;;;;1.30;1.10;;;19.80;89.60;;;;;;5070799;28;20467;-75
2021/06/14 07:31:19;;;;;;;2.03;1.20;;;20.00;88.30;;;;;;5074145;28;20457;-73
2021/06/14 07:33:47;;;;;;;3.47;1.50;;;20.00;87.30;;;;;;5072829;28;20510;-77
2021/06/14 07:36:14;;;;;;;2.37;1.83;;;20.10;87.50;;;;;;5073657;28;20452;-73
2021/06/14 07:38:41;;;;;;;1.50;1.40;;;20.20;87.80;;;;;;5073769;28;20544;-74
2021/06/14 07:41:09;;;;;;;1.70;1.33;;;20.20;86.80;;;;;;5071083;28;20480;-78
2021/06/14 07:43:38;;;;;;;1.57;1.30;;;20.40;93.00;;;;;;5073798;28;20499;-76
2021/06/14 07:46:05;;;;;;;1.20;1.10;;;20.70;90.90;;;;;;5071169;28;20460;-78
2021/06/14 07:48:32;;;;;;;1.40;1.30;;;20.90;85.20;;;;;;5073386;28;20459;-77
2021/06/14 07:51:00;;;;;;;1.40;1.20;;;21.00;85.30;;;;;;5071314;28;20526;-77
2021/06/14 07:53:27;;;;;;;1.80;1.20;;;21.20;89.60;;;;;;5073588;28;20484;-77
2021/06/14 07:55:56;;;;;;;1.37;1.30;;;21.40;91.20;;;;;;5071087;28;21008;-78
2021/06/14 07:58:23;;;;;;;1.30;1.20;;;21.50;84.00;;;;;;5073131;28;20453;-77
2021/06/14 08:00:52;;;;;;;1.27;1.10;;;21.50;82.90;;;;;;5070777;28;21011;-78
2021/06/14 08:03:23;;;;;;;1.40;1.27;;;21.60;84.70;;;;;;5073263;28;20465;-77
2021/06/14 08:05:50;;;;;;;1.47;1.30;;;21.80;84.40;;;;;;5071179;28;20487;-78
2021/06/14 08:08:17;;;;;;;1.20;0.97;;;21.90;86.20;;;;;;5072503;28;20496;-77
2021/06/14 08:10:46;;;;;;;2.27;1.27;;;22.00;84.10;;;;;;5071248;28;21083;-74
2021/06/14 08:13:13;;;;;;;1.20;1.17;;;22.10;86.90;;;;;;5073260;28;20494;-75
2021/06/14 08:15:40;;;;;;;1.40;1.27;;;22.30;85.20;;;;;;5070517;28;20452;-76
2021/06/14 08:18:22;;;;;;;1.63;1.63;;;22.30;81.90;;;;;;5072733;28;20453;-76
2021/06/14 08:21:02;;;;;;;1.40;1.27;;;22.40;81.50;;;;;;5070408;28;20538;-73
2021/06/14 08:26:13;;;;;;;1.40;1.20;;;22.40;83.10;;;;;;5070280;28;20445;-72
2021/06/14 08:28:41;;;;;;;1.67;1.40;;;22.40;81.80;;;;;;5072954;28;20460;-75
2021/06/14 08:31:08;;;;;;;1.50;1.40;;;22.40;81.70;;;;;;5070391;28;20875;-75
2021/06/14 08:33:37;;;;;;;1.30;1.20;;;22.50;80.30;;;;;;5072939;28;20514;-73
2021/06/14 08:36:04;;;;;;;1.50;1.33;;;22.60;80.70;;;;;;5068916;28;20515;-73
2021/06/14 08:38:32;;;;;;;1.90;1.40;;;22.60;81.40;;;;;;5072759;28;20488;-73
2021/06/14 08:40:59;;;;;;;1.50;1.30;;;22.70;81.90;;;;;;5069261;28;20444;-74
2021/06/14 08:43:27;;;;;;;1.60;1.20;;;22.70;82.70;;;;;;5072753;28;20492;-74
2021/06/14 08:45:57;;;;;;;2.00;1.77;;;22.90;82.60;;;;;;5068664;28;20561;-73
2021/06/14 08:48:25;;;;;;;1.50;1.20;;;23.00;80.10;;;;;;5072399;28;20480;-75
2021/06/14 08:50:53;;;;;;;1.57;1.43;;;23.00;81.20;;;;;;5070208;28;20456;-75
2021/06/14 08:53:21;;;;;;;2.03;1.47;;;23.10;79.50;;;;;;5072725;28;20464;-71
2021/06/14 08:55:49;;;;;;;1.47;1.40;;;23.20;81.10;;;;;;5065782;28;21001;-73
2021/06/14 08:58:16;;;;;;;1.30;1.30;;;23.40;80.60;;;;;;5069472;28;20449;-73
2021/06/14 09:00:43;;;;;;;1.30;1.30;;;23.50;78.60;;;;;;5070354;28;20493;-72
2021/06/14 09:03:10;;;;;;;1.30;1.20;;;23.50;78.00;;;;;;5070719;28;20520;-73
2021/06/14 09:05:37;;;;;;;1.50;1.20;;;23.50;77.60;;;;;;5069650;28;20453;-73
2021/06/14 09:08:08;;;;;;;1.47;1.20;;;23.60;78.80;;;;;;5071523;28;20613;-73
2021/06/14 09:10:37;;;;;;;1.20;1.10;;;23.60;78.60;;;;;;5069703;28;20484;-75
2021/06/14 09:13:15;;;;;;;1.30;1.17;;;23.80;79.30;;;;;;5072140;28;20509;-74
2021/06/14 09:15:47;;;;;;;2.33;1.70;;;23.90;77.60;;;;;;5069115;28;20483;-75
2021/06/14 09:18:19;;;;;;;1.37;1.23;;;24.10;77.80;;;;;;5071919;28;20507;-74
2021/06/14 09:21:01;;;;;;;1.30;1.20;;;24.20;75.80;;;;;;5064095;28;20460;-70
2021/06/14 09:23:40;;;;;;;1.30;1.17;;;24.30;77.00;;;;;;5051997;28;20519;-67
2021/06/14 09:26:08;;;;;;;1.30;1.10;;;24.30;75.50;;;;;;5049262;28;20488;-71
2021/06/14 09:28:48;;;;;;;4.80;2.03;;;24.40;76.30;;;;;;5051912;28;20519;-70
2021/06/14 09:31:16;;;;;;;2.03;1.40;;;24.50;74.90;;;;;;5049187;28;21064;-74
2021/06/14 09:33:46;;;;;;;1.87;1.60;;;24.50;75.80;;;;;;5051857;28;20519;-74
2021/06/14 09:36:14;;;;;;;1.40;1.30;;;24.70;76.00;;;;;;5049198;28;20541;-73
2021/06/14 09:38:43;;;;;;;1.57;1.33;;;24.70;75.90;;;;;;5051498;28;20466;-74
2021/06/14 09:41:11;;;;;;;1.60;1.40;;;24.80;75.40;;;;;;5047790;28;20493;-73
2021/06/14 09:43:40;;;;;;;1.63;1.47;;;24.90;74.30;;;;;;5050588;28;20516;-73
2021/06/14 09:46:18;;;;;;;1.70;1.20;;;25.00;74.70;;;;;;5048696;28;20461;-74
2021/06/14 09:48:45;;;;;;;1.90;1.40;;;25.10;73.00;;;;;;5051329;28;20883;-71
2021/06/14 09:51:11;;;;;;;2.30;1.40;;;25.10;76.10;;;;;;5048355;28;20503;-72
2021/06/14 09:53:45;;;;;;;1.30;1.20;;;25.20;73.50;;;;;;5051492;28;20501;-72
2021/06/14 09:56:18;;;;;;;1.77;1.30;;;25.10;74.10;;;;;;5048676;28;20556;-72
2021/06/14 09:58:45;;;;;;;1.83;1.40;;;25.20;74.70;;;;;;5051249;28;20450;-73
2021/06/14 10:01:21;;;;;;;1.50;1.40;;;25.30;74.20;;;;;;5049036;28;20489;-75
2021/06/14 10:03:48;;;;;;;1.67;1.30;;;25.40;73.60;;;;;;5049884;28;20465;-74
2021/06/14 10:06:27;;;;;;;2.80;1.70;;;25.50;72.90;;;;;;5049293;28;20756;-74
2021/06/14 10:08:56;;;;;;;1.50;1.30;;;25.70;71.00;;;;;;5050951;28;20547;-76
2021/06/14 10:11:23;;;;;;;1.40;1.20;;;25.80;72.80;;;;;;5048925;28;20466;-75
2021/06/14 10:13:51;;;;;;;1.30;1.20;;;25.90;73.60;;;;;;5051517;28;20505;-77
2021/06/14 10:16:24;;;;;;;1.50;1.40;;;25.90;72.00;;;;;;5048403;28;20454;-75
2021/06/14 10:18:56;;;;;;;1.50;1.40;;;26.00;71.60;;;;;;5050940;28;20461;-76
2021/06/14 10:21:26;;;;;;;2.07;1.47;;;26.10;72.80;;;;;;5048460;28;20466;-75
2021/06/14 10:23:56;;;;;;;1.40;1.40;;;26.20;73.10;;;;;;5050968;28;21037;-75
2021/06/14 10:26:24;;;;;;;1.30;1.20;;;26.30;73.60;;;;;;5048443;28;20474;-76
2021/06/14 10:28:52;;;;;;;1.73;1.40;;;26.50;72.90;;;;;;5050399;28;20457;-76
2021/06/14 10:31:23;;;;;;;1.80;1.50;;;26.60;71.30;;;;;;5047913;28;20527;-76
2021/06/14 10:33:52;;;;;;;1.40;1.33;;;26.50;70.80;;;;;;5051222;28;20495;-76
2021/06/14 10:36:25;;;;;;;2.23;1.60;;;26.50;69.40;;;;;;5047489;28;20864;-76
2021/06/14 10:38:55;;;;;;;1.50;1.20;;;26.70;71.90;;;;;;5050502;28;20511;-76
2021/06/14 10:41:24;;;;;;;1.30;1.20;;;26.70;72.40;;;;;;5048537;28;20468;-77
2021/06/14 10:43:52;;;;;;;1.83;1.33;;;26.80;71.70;;;;;;5050900;28;20462;-76
2021/06/14 10:46:23;;;;;;;1.80;1.47;;;26.90;72.10;;;;;;5047793;28;20458;-76
2021/06/14 10:48:55;;;;;;;1.57;1.37;;;27.10;70.20;;;;;;5050323;28;20545;-77
2021/06/14 10:51:23;;;;;;;1.93;1.40;;;27.10;68.10;;;;;;5048445;28;20454;-76
2021/06/14 10:53:51;;;;;;;2.50;1.50;;;27.30;71.20;;;;;;5050688;28;20454;-76
2021/06/14 10:56:21;;;;;;;1.80;1.37;;;27.30;71.10;;;;;;5047967;28;20450;-75
2021/06/14 10:58:59;;;;;;;1.50;1.30;;;27.60;70.90;;;;;;5050315;28;20446;-77
2021/06/14 11:01:34;;;;;;;3.53;1.40;;;27.70;70.80;;;;;;5048572;28;20845;-77
2021/06/14 11:04:02;;;;;;;1.40;1.27;;;27.90;70.30;;;;;;5049661;28;20507;-77
2021/06/14 11:06:37;;;;;;;1.67;1.23;;;27.70;68.60;;;;;;5048374;28;20540;-77
2021/06/14 11:09:08;;;;;;;1.50;1.40;;;27.70;71.50;;;;;;5050390;28;20457;-78
2021/06/14 11:11:54;;;;;;;1.30;1.20;;;28.00;71.10;;;;;;5050830;28;20519;-76
2021/06/14 11:14:45;;;;;;;1.57;1.40;;;28.30;69.20;;;;;;5048039;28;20453;-76
2021/06/14 11:17:19;;;;;;;1.60;1.43;;;28.50;69.40;;;;;;5046024;28;20524;-74
2021/06/14 11:19:48;;;;;;;1.30;1.30;;;28.80;67.40;;;;;;5047539;28;20461;-76
2021/06/14 11:22:15;;;;;;;1.60;1.50;;;29.00;67.80;;;;;;5050216;28;20484;-76
2021/06/14 11:24:43;;;;;;;1.73;1.53;;;29.20;67.70;;;;;;5048040;28;20872;-76
2021/06/14 11:27:12;;;;;;;1.50;1.37;;;29.10;63.60;;;;;;5050032;28;20465;-77
2021/06/14 11:29:50;;;;;;;1.47;1.30;;;28.90;63.90;;;;;;5047759;28;20527;-75
2021/06/14 11:32:20;;;;;;;1.30;1.20;;;29.10;65.60;;;;;;5050296;28;20523;-76
2021/06/14 11:34:51;;;;;;;1.77;1.40;;;29.30;66.30;;;;;;5047451;28;20443;-74
2021/06/14 11:37:18;;;;;;;1.50;1.30;;;29.30;64.70;;;;;;5050070;28;20281;-74
2021/06/14 11:39:46;;;;;;;1.30;1.30;;;29.50;62.90;;;;;;5047036;28;20499;-73
2021/06/14 11:42:18;;;;;;;1.97;1.33;;;29.50;65.20;;;;;;5049949;28;20521;-73
2021/06/14 11:44:54;;;;;;;1.67;1.50;;;29.60;64.10;;;;;;5051646;28;20467;-75
2021/06/14 11:47:24;;;;;;;2.03;1.40;;;29.40;64.20;;;;;;5052774;28;20465;-76
2021/06/14 11:49:53;;;;;;;1.67;1.30;;;29.50;64.50;;;;;;5051279;28;20468;-76
2021/06/14 11:52:23;;;;;;;1.40;1.37;;;29.70;64.80;;;;;;5053832;28;20543;-73
2021/06/14 11:54:55;;;;;;;1.70;1.40;;;29.70;62.20;;;;;;5051326;28;20468;-74
2021/06/14 11:57:34;;;;;;;1.97;1.47;;;29.70;64.60;;;;;;5053773;28;20548;-74
2021/06/14 12:00:01;;;;;;;2.10;1.30;;;29.90;65.70;;;;;;5049781;28;21009;-75
2021/06/14 12:02:30;;;;;;;1.40;1.33;;;30.10;65.20;;;;;;5053869;28;20489;-76
2021/06/14 12:04:58;;;;;;;1.50;1.40;;;30.20;64.00;;;;;;5051829;28;20458;-76
2021/06/14 12:07:34;;;;;;;1.40;1.40;;;30.20;64.10;;;;;;5052534;28;21014;-76
2021/06/14 12:10:05;;;;;;;1.80;1.40;;;30.10;61.80;;;;;;5050751;28;20466;-76
2021/06/14 12:12:34;;;;;;;1.33;1.30;;;29.90;63.60;;;;;;5053604;28;20465;-75
2021/06/14 12:15:01;;;;;;;1.50;1.30;;;30.10;61.50;;;;;;5050790;28;20877;-74
2021/06/14 12:17:31;;;;;;;1.70;1.30;;;30.30;62.50;;;;;;5053302;28;20485;-75
2021/06/14 12:19:59;;;;;;;1.83;1.50;;;30.50;61.60;;;;;;5050092;28;20511;-73
2021/06/14 12:22:27;;;;;;;1.80;1.70;;;30.60;61.80;;;;;;5053109;28;20493;-74
2021/06/14 12:24:55;;;;;;;1.43;1.40;;;30.50;59.00;;;;;;5050164;28;20528;-73
2021/06/14 12:27:23;;;;;;;1.70;1.40;;;30.50;59.80;;;;;;5052984;28;20894;-73
2021/06/14 12:29:59;;;;;;;1.73;1.50;;;30.60;59.80;;;;;;5050304;28;20519;-76
2021/06/14 12:32:29;;;;;;;1.30;1.27;;;30.80;57.70;;;;;;5053010;28;20741;-73
2021/06/14 12:35:00;;;;;;;1.60;1.33;;;31.00;57.80;;;;;;5050030;28;20462;-74
2021/06/14 12:37:27;;;;;;;2.60;1.50;;;30.90;55.60;;;;;;5052855;28;20539;-74
2021/06/14 12:40:06;;;;;;;1.57;1.33;;;30.70;58.30;;;;;;5050177;28;20442;-74
2021/06/14 12:42:34;;;;;;;1.37;1.33;;;30.60;57.40;;;;;;5051032;28;20535;-73
2021/06/14 12:45:07;;;;;;;1.47;1.47;;;30.50;61.90;;;;;;5050108;28;20493;-74
2021/06/14 12:47:35;;;;;;;1.70;1.53;;;30.70;59.20;;;;;;5052766;28;20512;-75
2021/06/14 12:50:04;;;;;;;1.90;1.50;;;30.80;61.40;;;;;;5050285;28;20912;-76
2021/06/14 12:52:32;;;;;;;1.60;1.40;;;31.00;60.80;;;;;;5052724;28;21015;-75
2021/06/14 12:55:00;;;;;;;1.67;1.47;;;31.30;58.50;;;;;;5049940;28;20494;-75
2021/06/14 12:57:38;;;;;;;1.47;1.43;;;31.50;60.20;;;;;;5052704;28;20523;-75
2021/06/14 13:00:13;;;;;;;2.03;1.50;;;31.40;61.30;;;;;;5049510;28;20505;-75